sensor_id;sensor_type;location;lat;lon;timestamp;P1;durP1;ratioP1;P2;durP2;ratioP2
60588;SDS011;46421;48.610;9.334;2022-12-13T00:00:37;0.63;;;0.63;;
60588;SDS011;46421;48.610;9.334;2022-12-13T00:03:02;0.77;;;0.77;;
60588;SDS011;46421;48.610;9.334;2022-12-13T00:05:28;0.70;;;0.70;;
60588;SDS011;46421;48.610;9.334;2022-12-13T00:07:53;0.70;;;0.70;;
60588;SDS011;46421;48.610;9.334;2022-12-13T00:10:18;0.90;;;0.90;;
60588;SDS011;46421;48.610;9.334;2022-12-13T00:12:44;0.52;;;0.52;;
60588;SDS011;46421;48.610;9.334;2022-12-13T00:15:09;0.65;;;0.65;;
60588;SDS011;46421;48.610;9.334;2022-12-13T00:17:35;0.70;;;0.70;;
60588;SDS011;46421;48.610;9.334;2022-12-13T00:20:00;0.70;;;0.70;;
60588;SDS011;46421;48.610;9.334;2022-12-13T00:22:26;0.90;;;0.90;;
60588;SDS011;46421;48.610;9.334;2022-12-13T00:24:52;0.68;;;0.68;;
60588;SDS011;46421;48.610;9.334;2022-12-13T00:27:20;0.73;;;0.73;;
60588;SDS011;46421;48.610;9.334;2022-12-13T00:29:46;1.00;;;1.00;;
60588;SDS011;46421;48.610;9.334;2022-12-13T00:32:11;0.90;;;0.90;;
60588;SDS011;46421;48.610;9.334;2022-12-13T00:34:37;0.90;;;0.90;;
60588;SDS011;46421;48.610;9.334;2022-12-13T00:37:02;0.90;;;0.90;;
60588;SDS011;46421;48.610;9.334;2022-12-13T00:39:28;0.73;;;0.73;;
60588;SDS011;46421;48.610;9.334;2022-12-13T00:41:53;0.93;;;0.93;;
60588;SDS011;46421;48.610;9.334;2022-12-13T00:44:19;0.80;;;0.80;;
60588;SDS011;46421;48.610;9.334;2022-12-13T00:46:44;0.77;;;0.77;;
60588;SDS011;46421;48.610;9.334;2022-12-13T00:49:10;0.75;;;0.75;;
60588;SDS011;46421;48.610;9.334;2022-12-13T00:51:36;0.80;;;0.80;;
60588;SDS011;46421;48.610;9.334;2022-12-13T00:54:02;0.90;;;0.90;;
60588;SDS011;46421;48.610;9.334;2022-12-13T00:56:29;0.80;;;0.80;;
60588;SDS011;46421;48.610;9.334;2022-12-13T00:58:56;0.90;;;0.90;;
60588;SDS011;46421;48.610;9.334;2022-12-13T01:01:22;0.55;;;0.55;;
60588;SDS011;46421;48.610;9.334;2022-12-13T01:03:50;0.73;;;0.73;;
60588;SDS011;46421;48.610;9.334;2022-12-13T01:06:19;0.70;;;0.70;;
60588;SDS011;46421;48.610;9.334;2022-12-13T01:08:46;0.73;;;0.73;;
60588;SDS011;46421;48.610;9.334;2022-12-13T01:11:12;0.80;;;0.80;;
60588;SDS011;46421;48.610;9.334;2022-12-13T01:13:38;0.70;;;0.70;;
60588;SDS011;46421;48.610;9.334;2022-12-13T01:16:05;0.80;;;0.80;;
60588;SDS011;46421;48.610;9.334;2022-12-13T01:18:31;0.65;;;0.65;;
60588;SDS011;46421;48.610;9.334;2022-12-13T01:20:58;0.80;;;0.80;;
60588;SDS011;46421;48.610;9.334;2022-12-13T01:23:29;0.80;;;0.80;;
60588;SDS011;46421;48.610;9.334;2022-12-13T01:25:55;0.70;;;0.70;;
60588;SDS011;46421;48.610;9.334;2022-12-13T01:28:21;0.82;;;0.82;;
60588;SDS011;46421;48.610;9.334;2022-12-13T01:30:57;0.90;;;0.90;;
60588;SDS011;46421;48.610;9.334;2022-12-13T01:33:24;0.80;;;0.80;;
60588;SDS011;46421;48.610;9.334;2022-12-13T01:35:50;0.63;;;0.63;;
60588;SDS011;46421;48.610;9.334;2022-12-13T01:38:16;0.80;;;0.80;;
60588;SDS011;46421;48.610;9.334;2022-12-13T01:40:42;0.75;;;0.75;;
60588;SDS011;46421;48.610;9.334;2022-12-13T01:43:11;0.70;;;0.70;;
60588;SDS011;46421;48.610;9.334;2022-12-13T01:45:37;0.60;;;0.60;;
60588;SDS011;46421;48.610;9.334;2022-12-13T01:48:03;0.80;;;0.80;;
60588;SDS011;46421;48.610;9.334;2022-12-13T01:50:36;0.80;;;0.80;;
60588;SDS011;46421;48.610;9.334;2022-12-13T01:53:04;0.75;;;0.75;;
60588;SDS011;46421;48.610;9.334;2022-12-13T01:55:32;0.77;;;0.77;;
60588;SDS011;46421;48.610;9.334;2022-12-13T01:58:00;0.70;;;0.70;;
60588;SDS011;46421;48.610;9.334;2022-12-13T02:00:27;0.82;;;0.82;;
60588;SDS011;46421;48.610;9.334;2022-12-13T02:02:53;0.90;;;0.90;;
60588;SDS011;46421;48.610;9.334;2022-12-13T02:08:03;0.80;;;0.80;;
60588;SDS011;46421;48.610;9.334;2022-12-13T02:10:30;0.90;;;0.90;;
60588;SDS011;46421;48.610;9.334;2022-12-13T02:12:56;0.80;;;0.80;;
60588;SDS011;46421;48.610;9.334;2022-12-13T02:15:22;0.82;;;0.82;;
60588;SDS011;46421;48.610;9.334;2022-12-13T02:18:02;0.85;;;0.85;;
60588;SDS011;46421;48.610;9.334;2022-12-13T02:20:36;0.80;;;0.80;;
60588;SDS011;46421;48.610;9.334;2022-12-13T02:23:15;0.70;;;0.70;;
60588;SDS011;46421;48.610;9.334;2022-12-13T02:26:19;0.80;;;0.80;;
60588;SDS011;46421;48.610;9.334;2022-12-13T02:29:09;0.88;;;0.88;;
60588;SDS011;46421;48.610;9.334;2022-12-13T02:37:58;0.70;;;0.70;;
60588;SDS011;46421;48.610;9.334;2022-12-13T02:40:53;0.80;;;0.80;;
60588;SDS011;46421;48.610;9.334;2022-12-13T02:43:22;0.80;;;0.80;;
60588;SDS011;46421;48.610;9.334;2022-12-13T02:45:50;0.90;;;0.90;;
60588;SDS011;46421;48.610;9.334;2022-12-13T02:48:24;0.68;;;0.68;;
60588;SDS011;46421;48.610;9.334;2022-12-13T02:50:53;0.70;;;0.70;;
60588;SDS011;46421;48.610;9.334;2022-12-13T02:53:20;0.70;;;0.70;;
60588;SDS011;46421;48.610;9.334;2022-12-13T02:55:47;0.70;;;0.70;;
60588;SDS011;46421;48.610;9.334;2022-12-13T02:58:13;0.70;;;0.70;;
60588;SDS011;46421;48.610;9.334;2022-12-13T03:03:46;0.70;;;0.70;;
60588;SDS011;46421;48.610;9.334;2022-12-13T03:06:34;0.70;;;0.70;;
60588;SDS011;46421;48.610;9.334;2022-12-13T03:09:32;0.90;;;0.90;;
60588;SDS011;46421;48.610;9.334;2022-12-13T03:12:17;0.82;;;0.82;;
60588;SDS011;46421;48.610;9.334;2022-12-13T03:18:12;0.90;;;0.90;;
60588;SDS011;46421;48.610;9.334;2022-12-13T03:20:44;0.70;;;0.70;;
60588;SDS011;46421;48.610;9.334;2022-12-13T03:23:11;1.10;;;1.10;;
60588;SDS011;46421;48.610;9.334;2022-12-13T03:25:38;0.80;;;0.80;;
60588;SDS011;46421;48.610;9.334;2022-12-13T03:28:03;0.77;;;0.77;;
60588;SDS011;46421;48.610;9.334;2022-12-13T03:30:32;0.70;;;0.70;;
60588;SDS011;46421;48.610;9.334;2022-12-13T03:32:58;0.80;;;0.80;;
60588;SDS011;46421;48.610;9.334;2022-12-13T03:35:24;0.80;;;0.80;;
60588;SDS011;46421;48.610;9.334;2022-12-13T03:37:50;0.73;;;0.73;;
60588;SDS011;46421;48.610;9.334;2022-12-13T03:40:16;0.82;;;0.82;;
60588;SDS011;46421;48.610;9.334;2022-12-13T03:42:42;0.80;;;0.80;;
60588;SDS011;46421;48.610;9.334;2022-12-13T03:45:07;0.88;;;0.88;;
60588;SDS011;46421;48.610;9.334;2022-12-13T03:47:33;0.70;;;0.70;;
60588;SDS011;46421;48.610;9.334;2022-12-13T03:49:58;0.80;;;0.80;;
60588;SDS011;46421;48.610;9.334;2022-12-13T03:52:24;0.70;;;0.70;;
60588;SDS011;46421;48.610;9.334;2022-12-13T03:54:49;0.98;;;0.98;;
60588;SDS011;46421;48.610;9.334;2022-12-13T03:57:14;0.70;;;0.70;;
60588;SDS011;46421;48.610;9.334;2022-12-13T03:59:40;0.80;;;0.80;;
60588;SDS011;46421;48.610;9.334;2022-12-13T04:02:05;0.77;;;0.77;;
60588;SDS011;46421;48.610;9.334;2022-12-13T04:04:31;0.80;;;0.80;;
60588;SDS011;46421;48.610;9.334;2022-12-13T04:06:56;0.77;;;0.77;;
60588;SDS011;46421;48.610;9.334;2022-12-13T04:09:21;0.80;;;0.80;;
60588;SDS011;46421;48.610;9.334;2022-12-13T04:11:47;0.90;;;0.90;;
60588;SDS011;46421;48.610;9.334;2022-12-13T04:14:31;0.70;;;0.70;;
60588;SDS011;46421;48.610;9.334;2022-12-13T04:16:56;0.82;;;0.82;;
60588;SDS011;46421;48.610;9.334;2022-12-13T04:19:22;0.90;;;0.90;;
60588;SDS011;46421;48.610;9.334;2022-12-13T04:21:47;0.70;;;0.70;;
60588;SDS011;46421;48.610;9.334;2022-12-13T04:24:12;0.80;;;0.80;;
60588;SDS011;46421;48.610;9.334;2022-12-13T04:26:38;0.85;;;0.85;;
60588;SDS011;46421;48.610;9.334;2022-12-13T04:29:03;0.90;;;0.90;;
60588;SDS011;46421;48.610;9.334;2022-12-13T04:31:28;0.70;;;0.70;;
60588;SDS011;46421;48.610;9.334;2022-12-13T04:33:54;0.80;;;0.80;;
60588;SDS011;46421;48.610;9.334;2022-12-13T04:36:19;0.80;;;0.80;;
60588;SDS011;46421;48.610;9.334;2022-12-13T04:38:45;0.80;;;0.80;;
60588;SDS011;46421;48.610;9.334;2022-12-13T04:41:14;0.73;;;0.73;;
60588;SDS011;46421;48.610;9.334;2022-12-13T04:43:42;0.75;;;0.75;;
60588;SDS011;46421;48.610;9.334;2022-12-13T04:46:08;0.88;;;0.88;;
60588;SDS011;46421;48.610;9.334;2022-12-13T04:48:34;0.82;;;0.82;;
60588;SDS011;46421;48.610;9.334;2022-12-13T04:50:59;0.90;;;0.90;;
60588;SDS011;46421;48.610;9.334;2022-12-13T04:53:25;0.90;;;0.90;;
60588;SDS011;46421;48.610;9.334;2022-12-13T04:55:51;0.80;;;0.80;;
60588;SDS011;46421;48.610;9.334;2022-12-13T04:58:17;0.80;;;0.80;;
60588;SDS011;46421;48.610;9.334;2022-12-13T05:00:42;0.70;;;0.70;;
60588;SDS011;46421;48.610;9.334;2022-12-13T05:03:08;0.90;;;0.90;;
60588;SDS011;46421;48.610;9.334;2022-12-13T05:05:33;0.85;;;0.85;;
60588;SDS011;46421;48.610;9.334;2022-12-13T05:07:58;0.70;;;0.70;;
60588;SDS011;46421;48.610;9.334;2022-12-13T05:10:24;0.60;;;0.60;;
60588;SDS011;46421;48.610;9.334;2022-12-13T05:12:49;0.70;;;0.70;;
60588;SDS011;46421;48.610;9.334;2022-12-13T05:15:14;0.80;;;0.80;;
60588;SDS011;46421;48.610;9.334;2022-12-13T05:17:40;0.80;;;0.80;;
60588;SDS011;46421;48.610;9.334;2022-12-13T05:20:05;0.70;;;0.70;;
60588;SDS011;46421;48.610;9.334;2022-12-13T05:22:31;0.90;;;0.90;;
60588;SDS011;46421;48.610;9.334;2022-12-13T05:24:56;0.77;;;0.77;;
60588;SDS011;46421;48.610;9.334;2022-12-13T05:27:22;0.90;;;0.90;;
60588;SDS011;46421;48.610;9.334;2022-12-13T05:29:47;0.90;;;0.90;;
60588;SDS011;46421;48.610;9.334;2022-12-13T05:32:12;0.88;;;0.88;;
60588;SDS011;46421;48.610;9.334;2022-12-13T05:34:38;0.90;;;0.90;;
60588;SDS011;46421;48.610;9.334;2022-12-13T05:37:03;0.80;;;0.80;;
60588;SDS011;46421;48.610;9.334;2022-12-13T05:39:28;0.73;;;0.73;;
60588;SDS011;46421;48.610;9.334;2022-12-13T05:41:54;0.73;;;0.73;;
60588;SDS011;46421;48.610;9.334;2022-12-13T05:44:20;0.80;;;0.80;;
60588;SDS011;46421;48.610;9.334;2022-12-13T05:46:46;0.80;;;0.80;;
60588;SDS011;46421;48.610;9.334;2022-12-13T05:49:11;0.80;;;0.80;;
60588;SDS011;46421;48.610;9.334;2022-12-13T05:51:36;0.93;;;0.93;;
60588;SDS011;46421;48.610;9.334;2022-12-13T05:54:02;0.73;;;0.73;;
60588;SDS011;46421;48.610;9.334;2022-12-13T05:56:28;0.90;;;0.90;;
60588;SDS011;46421;48.610;9.334;2022-12-13T05:58:53;1.00;;;1.00;;
60588;SDS011;46421;48.610;9.334;2022-12-13T06:01:19;0.80;;;0.80;;
60588;SDS011;46421;48.610;9.334;2022-12-13T06:03:44;0.98;;;0.98;;
60588;SDS011;46421;48.610;9.334;2022-12-13T06:06:10;0.90;;;0.90;;
60588;SDS011;46421;48.610;9.334;2022-12-13T06:08:36;0.70;;;0.70;;
60588;SDS011;46421;48.610;9.334;2022-12-13T06:11:02;0.80;;;0.80;;
60588;SDS011;46421;48.610;9.334;2022-12-13T06:13:28;0.70;;;0.70;;
60588;SDS011;46421;48.610;9.334;2022-12-13T06:15:54;0.80;;;0.80;;
60588;SDS011;46421;48.610;9.334;2022-12-13T06:18:24;0.80;;;0.80;;
60588;SDS011;46421;48.610;9.334;2022-12-13T06:20:55;0.70;;;0.70;;
60588;SDS011;46421;48.610;9.334;2022-12-13T06:23:23;0.70;;;0.70;;
60588;SDS011;46421;48.610;9.334;2022-12-13T06:25:49;0.90;;;0.90;;
60588;SDS011;46421;48.610;9.334;2022-12-13T06:28:14;0.80;;;0.80;;
60588;SDS011;46421;48.610;9.334;2022-12-13T06:30:40;0.77;;;0.77;;
60588;SDS011;46421;48.610;9.334;2022-12-13T06:33:05;0.80;;;0.80;;
60588;SDS011;46421;48.610;9.334;2022-12-13T06:35:30;0.82;;;0.82;;
60588;SDS011;46421;48.610;9.334;2022-12-13T06:37:56;0.80;;;0.80;;
60588;SDS011;46421;48.610;9.334;2022-12-13T06:40:22;0.70;;;0.70;;
60588;SDS011;46421;48.610;9.334;2022-12-13T06:42:47;0.80;;;0.80;;
60588;SDS011;46421;48.610;9.334;2022-12-13T06:45:12;0.80;;;0.80;;
60588;SDS011;46421;48.610;9.334;2022-12-13T06:47:38;0.90;;;0.90;;
60588;SDS011;46421;48.610;9.334;2022-12-13T06:50:04;0.80;;;0.80;;
60588;SDS011;46421;48.610;9.334;2022-12-13T06:52:29;0.75;;;0.75;;
60588;SDS011;46421;48.610;9.334;2022-12-13T06:54:55;0.77;;;0.77;;
60588;SDS011;46421;48.610;9.334;2022-12-13T06:57:21;0.88;;;0.88;;
60588;SDS011;46421;48.610;9.334;2022-12-13T06:59:46;0.82;;;0.82;;
60588;SDS011;46421;48.610;9.334;2022-12-13T07:02:11;0.80;;;0.80;;
60588;SDS011;46421;48.610;9.334;2022-12-13T07:04:37;0.90;;;0.90;;
60588;SDS011;46421;48.610;9.334;2022-12-13T07:07:02;0.70;;;0.70;;
60588;SDS011;46421;48.610;9.334;2022-12-13T07:09:29;0.70;;;0.70;;
60588;SDS011;46421;48.610;9.334;2022-12-13T07:11:55;0.90;;;0.90;;
60588;SDS011;46421;48.610;9.334;2022-12-13T07:14:20;0.90;;;0.90;;
60588;SDS011;46421;48.610;9.334;2022-12-13T07:16:45;1.00;;;1.00;;
60588;SDS011;46421;48.610;9.334;2022-12-13T07:19:11;0.70;;;0.70;;
60588;SDS011;46421;48.610;9.334;2022-12-13T07:21:36;0.85;;;0.85;;
60588;SDS011;46421;48.610;9.334;2022-12-13T07:24:03;0.80;;;0.80;;
60588;SDS011;46421;48.610;9.334;2022-12-13T07:26:28;0.90;;;0.90;;
60588;SDS011;46421;48.610;9.334;2022-12-13T07:28:54;0.80;;;0.80;;
60588;SDS011;46421;48.610;9.334;2022-12-13T07:31:19;0.90;;;0.90;;
60588;SDS011;46421;48.610;9.334;2022-12-13T07:33:45;0.75;;;0.75;;
60588;SDS011;46421;48.610;9.334;2022-12-13T07:36:11;0.70;;;0.70;;
60588;SDS011;46421;48.610;9.334;2022-12-13T07:38:41;0.85;;;0.85;;
60588;SDS011;46421;48.610;9.334;2022-12-13T07:41:07;0.90;;;0.90;;
60588;SDS011;46421;48.610;9.334;2022-12-13T07:43:33;0.90;;;0.90;;
60588;SDS011;46421;48.610;9.334;2022-12-13T07:46:00;0.70;;;0.70;;
60588;SDS011;46421;48.610;9.334;2022-12-13T07:48:27;0.85;;;0.85;;
60588;SDS011;46421;48.610;9.334;2022-12-13T07:50:53;0.70;;;0.70;;
60588;SDS011;46421;48.610;9.334;2022-12-13T07:53:19;0.80;;;0.80;;
60588;SDS011;46421;48.610;9.334;2022-12-13T07:55:45;0.90;;;0.90;;
60588;SDS011;46421;48.610;9.334;2022-12-13T07:58:12;0.70;;;0.70;;
60588;SDS011;46421;48.610;9.334;2022-12-13T08:00:39;0.88;;;0.88;;
60588;SDS011;46421;48.610;9.334;2022-12-13T08:03:06;0.77;;;0.77;;
60588;SDS011;46421;48.610;9.334;2022-12-13T08:05:32;0.70;;;0.70;;
60588;SDS011;46421;48.610;9.334;2022-12-13T08:07:58;0.75;;;0.75;;
60588;SDS011;46421;48.610;9.334;2022-12-13T08:10:24;0.68;;;0.68;;
60588;SDS011;46421;48.610;9.334;2022-12-13T08:12:50;0.80;;;0.80;;
60588;SDS011;46421;48.610;9.334;2022-12-13T08:15:15;0.85;;;0.85;;
60588;SDS011;46421;48.610;9.334;2022-12-13T08:17:41;0.70;;;0.70;;
60588;SDS011;46421;48.610;9.334;2022-12-13T08:20:07;0.80;;;0.80;;
60588;SDS011;46421;48.610;9.334;2022-12-13T08:22:32;0.90;;;0.90;;
60588;SDS011;46421;48.610;9.334;2022-12-13T08:24:58;0.82;;;0.82;;
60588;SDS011;46421;48.610;9.334;2022-12-13T08:27:23;0.70;;;0.70;;
60588;SDS011;46421;48.610;9.334;2022-12-13T08:29:49;0.80;;;0.80;;
60588;SDS011;46421;48.610;9.334;2022-12-13T08:32:14;0.80;;;0.80;;
60588;SDS011;46421;48.610;9.334;2022-12-13T08:34:39;0.90;;;0.90;;
60588;SDS011;46421;48.610;9.334;2022-12-13T08:37:05;0.80;;;0.80;;
60588;SDS011;46421;48.610;9.334;2022-12-13T08:39:31;0.80;;;0.80;;
60588;SDS011;46421;48.610;9.334;2022-12-13T08:42:01;0.70;;;0.70;;
60588;SDS011;46421;48.610;9.334;2022-12-13T08:44:28;0.65;;;0.65;;
60588;SDS011;46421;48.610;9.334;2022-12-13T08:46:53;0.90;;;0.90;;
60588;SDS011;46421;48.610;9.334;2022-12-13T08:49:19;0.80;;;0.80;;
60588;SDS011;46421;48.610;9.334;2022-12-13T08:51:44;0.60;;;0.60;;
60588;SDS011;46421;48.610;9.334;2022-12-13T08:54:09;0.70;;;0.70;;
60588;SDS011;46421;48.610;9.334;2022-12-13T08:56:35;0.60;;;0.60;;
60588;SDS011;46421;48.610;9.334;2022-12-13T08:59:00;0.50;;;0.50;;
60588;SDS011;46421;48.610;9.334;2022-12-13T09:01:26;0.80;;;0.80;;
60588;SDS011;46421;48.610;9.334;2022-12-13T09:03:51;0.57;;;0.57;;
60588;SDS011;46421;48.610;9.334;2022-12-13T09:06:16;0.70;;;0.70;;
60588;SDS011;46421;48.610;9.334;2022-12-13T09:08:42;0.60;;;0.60;;
60588;SDS011;46421;48.610;9.334;2022-12-13T09:11:09;0.60;;;0.60;;
60588;SDS011;46421;48.610;9.334;2022-12-13T09:13:35;0.55;;;0.55;;
60588;SDS011;46421;48.610;9.334;2022-12-13T09:16:05;0.82;;;0.82;;
60588;SDS011;46421;48.610;9.334;2022-12-13T09:18:38;0.60;;;0.60;;
60588;SDS011;46421;48.610;9.334;2022-12-13T09:21:08;0.70;;;0.70;;
60588;SDS011;46421;48.610;9.334;2022-12-13T09:23:35;0.68;;;0.68;;
60588;SDS011;46421;48.610;9.334;2022-12-13T09:26:01;0.60;;;0.60;;
60588;SDS011;46421;48.610;9.334;2022-12-13T09:28:26;0.63;;;0.63;;
60588;SDS011;46421;48.610;9.334;2022-12-13T09:30:53;0.60;;;0.60;;
60588;SDS011;46421;48.610;9.334;2022-12-13T09:33:19;0.50;;;0.50;;
60588;SDS011;46421;48.610;9.334;2022-12-13T09:35:44;0.60;;;0.60;;
60588;SDS011;46421;48.610;9.334;2022-12-13T09:38:10;0.50;;;0.50;;
60588;SDS011;46421;48.610;9.334;2022-12-13T09:40:36;0.60;;;0.60;;
60588;SDS011;46421;48.610;9.334;2022-12-13T09:43:02;0.80;;;0.80;;
60588;SDS011;46421;48.610;9.334;2022-12-13T09:45:29;0.60;;;0.60;;
60588;SDS011;46421;48.610;9.334;2022-12-13T09:47:55;0.60;;;0.60;;
60588;SDS011;46421;48.610;9.334;2022-12-13T09:50:24;0.55;;;0.55;;
60588;SDS011;46421;48.610;9.334;2022-12-13T09:52:53;0.57;;;0.57;;
60588;SDS011;46421;48.610;9.334;2022-12-13T09:57:55;0.57;;;0.57;;
60588;SDS011;46421;48.610;9.334;2022-12-13T10:00:22;0.60;;;0.60;;
60588;SDS011;46421;48.610;9.334;2022-12-13T10:02:56;0.50;;;0.50;;
60588;SDS011;46421;48.610;9.334;2022-12-13T10:05:30;0.60;;;0.60;;
60588;SDS011;46421;48.610;9.334;2022-12-13T10:08:00;0.70;;;0.70;;
60588;SDS011;46421;48.610;9.334;2022-12-13T10:10:30;0.50;;;0.50;;
60588;SDS011;46421;48.610;9.334;2022-12-13T10:13:02;0.60;;;0.60;;
60588;SDS011;46421;48.610;9.334;2022-12-13T10:15:29;0.60;;;0.60;;
60588;SDS011;46421;48.610;9.334;2022-12-13T10:17:57;0.50;;;0.50;;
60588;SDS011;46421;48.610;9.334;2022-12-13T10:20:27;0.50;;;0.50;;
60588;SDS011;46421;48.610;9.334;2022-12-13T10:22:53;0.55;;;0.55;;
60588;SDS011;46421;48.610;9.334;2022-12-13T10:25:38;0.40;;;0.40;;
60588;SDS011;46421;48.610;9.334;2022-12-13T10:28:12;0.73;;;0.73;;
60588;SDS011;46421;48.610;9.334;2022-12-13T10:30:41;0.60;;;0.60;;
60588;SDS011;46421;48.610;9.334;2022-12-13T10:33:17;0.52;;;0.52;;
60588;SDS011;46421;48.610;9.334;2022-12-13T10:36:02;0.40;;;0.40;;
60588;SDS011;46421;48.610;9.334;2022-12-13T10:38:34;0.60;;;0.60;;
60588;SDS011;46421;48.610;9.334;2022-12-13T10:41:23;0.75;;;0.75;;
60588;SDS011;46421;48.610;9.334;2022-12-13T10:44:07;0.50;;;0.50;;
60588;SDS011;46421;48.610;9.334;2022-12-13T10:46:33;0.40;;;0.40;;
60588;SDS011;46421;48.610;9.334;2022-12-13T10:48:58;0.50;;;0.50;;
60588;SDS011;46421;48.610;9.334;2022-12-13T10:51:24;0.50;;;0.50;;
60588;SDS011;46421;48.610;9.334;2022-12-13T10:53:56;0.50;;;0.50;;
60588;SDS011;46421;48.610;9.334;2022-12-13T10:56:35;0.60;;;0.60;;
60588;SDS011;46421;48.610;9.334;2022-12-13T11:01:36;0.43;;;0.43;;
60588;SDS011;46421;48.610;9.334;2022-12-13T11:04:03;0.50;;;0.50;;
60588;SDS011;46421;48.610;9.334;2022-12-13T11:06:40;0.60;;;0.60;;
60588;SDS011;46421;48.610;9.334;2022-12-13T11:09:23;0.50;;;0.50;;
60588;SDS011;46421;48.610;9.334;2022-12-13T11:11:51;0.52;;;0.52;;
60588;SDS011;46421;48.610;9.334;2022-12-13T11:14:18;0.60;;;0.60;;
60588;SDS011;46421;48.610;9.334;2022-12-13T11:16:49;0.50;;;0.50;;
60588;SDS011;46421;48.610;9.334;2022-12-13T11:19:18;0.43;;;0.43;;
60588;SDS011;46421;48.610;9.334;2022-12-13T11:21:48;0.50;;;0.50;;
60588;SDS011;46421;48.610;9.334;2022-12-13T11:24:35;0.50;;;0.50;;
60588;SDS011;46421;48.610;9.334;2022-12-13T11:38:12;0.52;;;0.52;;
60588;SDS011;46421;48.610;9.334;2022-12-13T11:41:00;0.45;;;0.45;;
60588;SDS011;46421;48.610;9.334;2022-12-13T11:49:12;0.38;;;0.38;;
60588;SDS011;46421;48.610;9.334;2022-12-13T11:51:49;0.52;;;0.52;;
60588;SDS011;46421;48.610;9.334;2022-12-13T11:54:25;0.57;;;0.57;;
60588;SDS011;46421;48.610;9.334;2022-12-13T11:56:59;0.40;;;0.40;;
60588;SDS011;46421;48.610;9.334;2022-12-13T11:59:42;0.47;;;0.47;;
60588;SDS011;46421;48.610;9.334;2022-12-13T12:02:32;0.50;;;0.50;;
60588;SDS011;46421;48.610;9.334;2022-12-13T12:05:09;0.50;;;0.50;;
60588;SDS011;46421;48.610;9.334;2022-12-13T12:07:52;0.50;;;0.50;;
60588;SDS011;46421;48.610;9.334;2022-12-13T12:19:02;0.40;;;0.40;;
60588;SDS011;46421;48.610;9.334;2022-12-13T12:21:36;0.50;;;0.50;;
60588;SDS011;46421;48.610;9.334;2022-12-13T12:24:28;0.30;;;0.30;;
60588;SDS011;46421;48.610;9.334;2022-12-13T12:27:20;0.45;;;0.45;;
60588;SDS011;46421;48.610;9.334;2022-12-13T12:30:22;0.45;;;0.45;;
60588;SDS011;46421;48.610;9.334;2022-12-13T12:33:06;0.38;;;0.38;;
60588;SDS011;46421;48.610;9.334;2022-12-13T12:35:57;0.40;;;0.40;;
60588;SDS011;46421;48.610;9.334;2022-12-13T12:57:25;0.50;;;0.50;;
60588;SDS011;46421;48.610;9.334;2022-12-13T13:00:16;0.47;;;0.47;;
60588;SDS011;46421;48.610;9.334;2022-12-13T13:05:39;0.43;;;0.43;;
60588;SDS011;46421;48.610;9.334;2022-12-13T13:08:11;0.43;;;0.43;;
60588;SDS011;46421;48.610;9.334;2022-12-13T13:10:38;0.50;;;0.50;;
60588;SDS011;46421;48.610;9.334;2022-12-13T13:13:30;0.40;;;0.40;;
60588;SDS011;46421;48.610;9.334;2022-12-13T13:18:55;0.40;;;0.40;;
60588;SDS011;46421;48.610;9.334;2022-12-13T13:23:47;0.50;;;0.50;;
60588;SDS011;46421;48.610;9.334;2022-12-13T13:26:25;0.50;;;0.50;;
60588;SDS011;46421;48.610;9.334;2022-12-13T13:28:52;0.50;;;0.50;;
60588;SDS011;46421;48.610;9.334;2022-12-13T13:31:17;0.40;;;0.40;;
60588;SDS011;46421;48.610;9.334;2022-12-13T13:33:44;0.40;;;0.40;;
60588;SDS011;46421;48.610;9.334;2022-12-13T13:42:07;0.50;;;0.50;;
60588;SDS011;46421;48.610;9.334;2022-12-13T13:47:11;0.40;;;0.40;;
60588;SDS011;46421;48.610;9.334;2022-12-13T13:49:55;0.45;;;0.45;;
60588;SDS011;46421;48.610;9.334;2022-12-13T14:15:43;0.50;;;0.50;;
60588;SDS011;46421;48.610;9.334;2022-12-13T14:30:00;0.55;;;0.55;;
60588;SDS011;46421;48.610;9.334;2022-12-13T14:32:30;0.50;;;0.50;;
60588;SDS011;46421;48.610;9.334;2022-12-13T14:35:01;0.40;;;0.40;;
60588;SDS011;46421;48.610;9.334;2022-12-13T14:37:31;0.40;;;0.40;;
60588;SDS011;46421;48.610;9.334;2022-12-13T14:40:00;0.50;;;0.50;;
60588;SDS011;46421;48.610;9.334;2022-12-13T14:42:28;0.47;;;0.47;;
60588;SDS011;46421;48.610;9.334;2022-12-13T14:47:52;0.40;;;0.40;;
60588;SDS011;46421;48.610;9.334;2022-12-13T14:50:19;0.50;;;0.50;;
60588;SDS011;46421;48.610;9.334;2022-12-13T14:52:45;0.50;;;0.50;;
60588;SDS011;46421;48.610;9.334;2022-12-13T14:55:29;0.40;;;0.40;;
60588;SDS011;46421;48.610;9.334;2022-12-13T14:58:01;0.57;;;0.57;;
60588;SDS011;46421;48.610;9.334;2022-12-13T15:00:33;0.30;;;0.30;;
60588;SDS011;46421;48.610;9.334;2022-12-13T15:03:03;0.40;;;0.40;;
60588;SDS011;46421;48.610;9.334;2022-12-13T15:05:31;0.50;;;0.50;;
60588;SDS011;46421;48.610;9.334;2022-12-13T15:08:08;0.50;;;0.50;;
60588;SDS011;46421;48.610;9.334;2022-12-13T15:10:39;0.40;;;0.40;;
60588;SDS011;46421;48.610;9.334;2022-12-13T15:13:15;0.60;;;0.60;;
60588;SDS011;46421;48.610;9.334;2022-12-13T15:15:44;0.50;;;0.50;;
60588;SDS011;46421;48.610;9.334;2022-12-13T15:18:17;0.50;;;0.50;;
60588;SDS011;46421;48.610;9.334;2022-12-13T15:20:45;0.40;;;0.40;;
60588;SDS011;46421;48.610;9.334;2022-12-13T15:25:47;0.40;;;0.40;;
60588;SDS011;46421;48.610;9.334;2022-12-13T15:28:19;0.57;;;0.57;;
60588;SDS011;46421;48.610;9.334;2022-12-13T15:30:45;0.40;;;0.40;;
60588;SDS011;46421;48.610;9.334;2022-12-13T15:33:21;0.50;;;0.50;;
60588;SDS011;46421;48.610;9.334;2022-12-13T15:35:49;0.60;;;0.60;;
60588;SDS011;46421;48.610;9.334;2022-12-13T15:38:30;0.50;;;0.50;;
60588;SDS011;46421;48.610;9.334;2022-12-13T15:40:55;0.40;;;0.40;;
60588;SDS011;46421;48.610;9.334;2022-12-13T15:43:21;0.43;;;0.43;;
60588;SDS011;46421;48.610;9.334;2022-12-13T15:45:52;0.40;;;0.40;;
60588;SDS011;46421;48.610;9.334;2022-12-13T15:51:17;0.40;;;0.40;;
60588;SDS011;46421;48.610;9.334;2022-12-13T15:54:03;0.50;;;0.50;;
60588;SDS011;46421;48.610;9.334;2022-12-13T15:56:38;0.50;;;0.50;;
60588;SDS011;46421;48.610;9.334;2022-12-13T15:59:22;0.50;;;0.50;;
60588;SDS011;46421;48.610;9.334;2022-12-13T16:01:50;0.50;;;0.50;;
60588;SDS011;46421;48.610;9.334;2022-12-13T16:04:20;0.50;;;0.50;;
60588;SDS011;46421;48.610;9.334;2022-12-13T16:06:50;0.63;;;0.63;;
60588;SDS011;46421;48.610;9.334;2022-12-13T16:09:20;0.60;;;0.60;;
60588;SDS011;46421;48.610;9.334;2022-12-13T16:11:52;0.45;;;0.45;;
60588;SDS011;46421;48.610;9.334;2022-12-13T16:14:24;0.50;;;0.50;;
60588;SDS011;46421;48.610;9.334;2022-12-13T16:16:51;0.50;;;0.50;;
60588;SDS011;46421;48.610;9.334;2022-12-13T16:19:18;0.60;;;0.60;;
60588;SDS011;46421;48.610;9.334;2022-12-13T16:21:44;0.40;;;0.40;;
60588;SDS011;46421;48.610;9.334;2022-12-13T16:24:09;0.50;;;0.50;;
60588;SDS011;46421;48.610;9.334;2022-12-13T16:26:34;0.60;;;0.60;;
60588;SDS011;46421;48.610;9.334;2022-12-13T16:29:00;0.45;;;0.45;;
60588;SDS011;46421;48.610;9.334;2022-12-13T16:31:26;0.40;;;0.40;;
60588;SDS011;46421;48.610;9.334;2022-12-13T16:33:59;0.80;;;0.80;;
60588;SDS011;46421;48.610;9.334;2022-12-13T16:36:24;0.50;;;0.50;;
60588;SDS011;46421;48.610;9.334;2022-12-13T16:38:50;0.52;;;0.52;;
60588;SDS011;46421;48.610;9.334;2022-12-13T16:41:15;0.47;;;0.47;;
60588;SDS011;46421;48.610;9.334;2022-12-13T16:43:52;0.50;;;0.50;;
60588;SDS011;46421;48.610;9.334;2022-12-13T16:46:25;0.60;;;0.60;;
60588;SDS011;46421;48.610;9.334;2022-12-13T16:48:51;0.52;;;0.52;;
60588;SDS011;46421;48.610;9.334;2022-12-13T16:51:17;0.60;;;0.60;;
60588;SDS011;46421;48.610;9.334;2022-12-13T16:53:44;0.50;;;0.50;;
60588;SDS011;46421;48.610;9.334;2022-12-13T16:56:10;0.60;;;0.60;;
60588;SDS011;46421;48.610;9.334;2022-12-13T16:58:38;0.50;;;0.50;;
60588;SDS011;46421;48.610;9.334;2022-12-13T17:01:11;0.50;;;0.50;;
60588;SDS011;46421;48.610;9.334;2022-12-13T17:03:38;0.50;;;0.50;;